National Weather Service United States Department of Commerce

Airport Observations and Forecasts (from NWS CLE)

Cleveland Hopkins International Airport

 

FAA details


051
FTUS41 KCLE 221456 AAB
TAFCLE
TAF AMD
KCLE 221456Z 2215/2318 05010KT P6SM -RA OVC050
FM221600 07010KT P6SM SCT020 OVC050
FM222000 04012KT P6SM OVC040
FM230900 11009KT P6SM -RA OVC015
FM231300 13006KT 3SM -RA BR OVC015=

24 hours of observations

7-day forecast

Hourly - Tabular forecast  Hourly - Graph forecast

Terminal Information Board

Toledo Express Airport

 

FAA details


262
FTUS41 KCLE 221332 AAB
TAFTOL
TAF AMD
KTOL 221332Z 2214/2312 06014KT P6SM -FZRA SCT015 OVC060
FM221500 06012KT P6SM SCT015 OVC060
FM221700 06012KT P6SM OVC015
FM230300 07006KT P6SM OVC007
FM230700 07008KT 4SM -PL BR OVC007
FM231000 09007KT 4SM -RA BR OVC007=

24 hours of observations

7-day forecast

Hourly - Tabular forecast  Hourly - Graph forecast

Terminal Information Board

Findlay Airport

 

FAA details


320
FTUS41 KCLE 221507 AAB
TAFFDY
TAF AMD
KFDY 221507Z 2215/2312 03012KT P6SM FEW010 SCT025 OVC035
FM230500 07007KT P6SM -RA OVC015=

24 hours of observations

7-day forecast

Hourly - Tabular forecast   Hourly - Graph forecast

Terminal Information Board

Mansfield Lahm Airport

 

FAA details


128
FTUS41 KCLE 221136
TAFMFD
TAF
KMFD 221136Z 2212/2312 03010KT 5SM -PL BR OVC040
TEMPO 2212/2213 -FZRA OVC005
FM221300 05009KT 3SM -RA OVC045
FM221700 05010KT P6SM OVC007
FM222300 05008KT P6SM OVC007
FM231000 08008KT P6SM -RA OVC007=

24 hours of observations

7-day forecast

Hourly - Tabular forecast   Hourly - Graph forecast

Terminal Information Board

Akron-Canton Airport

 

FAA details


126
FTUS41 KCLE 221136
TAFCAK
TAF
KCAK 221136Z 2212/2312 05010KT P6SM -RASN OVC050
FM221300 05009KT P6SM -RA OVC050
FM221900 04010KT P6SM OVC035
FM231000 11006KT P6SM -RA OVC015=

24 hours of observations

7-day forecast

Hourly - Tabular forecast   Hourly - Graph forecast

Terminal Information Board

Youngstown-Warren Regional Airport

 

FAA details


127
FTUS41 KCLE 221136
TAFYNG
TAF
KYNG 221136Z 2212/2312 04009KT P6SM -RAPL OVC050
FM221400 05009KT P6SM -RA OVC050
FM221800 05009KT P6SM OVC035
FM231100 11006KT 5SM -RA BR OVC015=

24 hours of observations

7-day forecast

Hourly - Tabular forecast   Hourly - Graph forecast

Terminal Information Board

Erie International Airport

 

FAA details


668
FTUS41 KCLE 221407 AAA
TAFERI
TAF AMD
KERI 221407Z 2214/2312 05010KT 2SM -SN BKN015 OVC025
FM221900 04010G20KT P6SM OVC050
FM231100 11008KT P6SM -RA OVC035=

24 hours of observations

7-day forecast

Hourly - Tabular Forecast  Hourly - Graph forecast

Terminal Information Board

The National Weather Service is Cleveland is responsible for the Terminal Areodome Forecasts for seven area airports in northern Ohio and northwest Pennsylvania.  Routine issuance times are by 00Z, 06Z, 12Z, and 18Z with amendments, as needed.

Latest Surface Analysis

Additional Current Conditions

Satellite

Radar
 
 

 

Center Weather Service Unit, Oberlin/ZOB

CWA/MIS    

 

The National Weather Service Center Weather Service Unit in Oberlin is responsible for the airspace above northern Ohio and northwest Pennsylvania and ajoining areas.

 

Aviaiton Weather Center National, AWC

AIRMETS & SIGMETS